Aviation Digital Data Service (ADDS)

Output produced by METARs form (0503 UTC 27 July 2017)
found at http://www.aviationweather.gov/adds/metars/
 
ESTA 270420Z AUTO 13003KT 9999 OVC120/// 14/13 Q1004